Berlin, Massachusetts
Current Conditions -  °F | °C
As of 6:52 PM on Monday 22 Dec 2014 (Local Time) from KFIT Reporting Station
Light Rain Light Rain  
Wind Chill: 36°   Ceiling: 600
Heat Index: 36°   Visibility: 5mi
Dew Point: 33°   Wind: 0mph
Humidity: 89%   Direction: NA
Pressure: 30.34"   Gusts: NA
Location:  42.38°N, 71.64°W
Report Text: KFIT 222352Z AUTO 00000KT 5SM -RA BR OVC006 02/01 A3034 RMK AO2 RAE17B47 SLP277 P0000 60000 T00220006 10044 20022 51002
Loading
Personal Weather Stations






























Interactive Weather Map New forecast layout! Learn more

10-Day Weather Forecast

Advertisements
Track Severe Weather on mobile